Time;durP1;ratioP1;P1;durP2;ratioP2;P2;SDS_P1;SDS_P2;PMS_P1;PMS_P2;Temp;Humidity;BMP_temperature;BMP_pressure;BME280_temperature;BME280_humidity;BME280_pressure;Samples;Min_cycle;Max_cycle;Signal;HPM_P1;HPM_P2
2022/03/24 00:02:14;;;;;;;100.28;61.72;;;;;;;4.85;90.05;103085.56;4985835;28;20026;-75
2022/03/24 00:04:40;;;;;;;92.70;59.90;;;;;;;4.84;90.28;103078.53;4967735;28;20655;-75
2022/03/24 00:07:05;;;;;;;93.22;58.05;;;;;;;4.81;90.31;103074.16;4987022;28;20046;-75
2022/03/24 00:09:32;;;;;;;96.85;59.13;;;;;;;4.79;90.16;103074.97;4997232;28;20058;-75
2022/03/24 00:11:57;;;;;;;97.63;59.33;;;;;;;4.74;90.13;103078.41;5001088;28;20103;-75
2022/03/24 00:14:23;;;;;;;103.18;61.83;;;;;;;4.73;90.55;103074.03;4986041;28;20497;-75
2022/03/24 00:16:48;;;;;;;96.13;59.58;;;;;;;4.71;90.23;103078.38;4972006;28;20027;-75
2022/03/24 00:19:17;;;;;;;107.22;62.38;;;;;;;4.71;90.76;103081.00;4986120;28;20418;-75
2022/03/24 00:21:43;;;;;;;110.00;65.35;;;;;;;4.70;90.92;103074.00;4986801;28;20034;-75
2022/03/24 00:24:09;;;;;;;106.68;63.13;;;;;;;4.70;90.98;103081.88;4987015;28;20080;-75
2022/03/24 00:26:35;;;;;;;100.32;61.65;;;;;;;4.68;90.76;103074.81;4966119;28;20482;-75
2022/03/24 00:29:02;;;;;;;106.70;63.20;;;;;;;4.66;91.42;103073.91;5000103;28;20022;-75
2022/03/24 00:31:28;;;;;;;110.10;64.57;;;;;;;4.63;91.08;103069.47;4966833;28;20493;-75
2022/03/24 00:33:55;;;;;;;113.68;66.65;;;;;;;4.64;91.98;103065.13;4982322;28;20030;-75
2022/03/24 00:36:21;;;;;;;108.57;63.40;;;;;;;4.62;91.92;103067.72;4985243;28;20069;-75
2022/03/24 00:38:52;;;;;;;110.97;65.93;;;;;;;4.64;91.76;103066.03;4971698;28;20057;-75
2022/03/24 00:41:17;;;;;;;107.10;63.38;;;;;;;4.66;91.98;103066.03;4984578;28;20038;-75
2022/03/24 00:43:44;;;;;;;111.63;66.78;;;;;;;4.65;92.17;103070.41;4987485;28;20092;-76
2022/03/24 00:46:09;;;;;;;108.03;64.35;;;;;;;4.67;92.24;103067.78;4986174;28;20038;-75
2022/03/24 00:48:35;;;;;;;113.60;65.78;;;;;;;4.66;92.91;103066.03;4983305;28;20042;-75
2022/03/24 00:51:01;;;;;;;114.47;66.18;;;;;;;4.64;92.91;103067.75;4968054;28;20034;-76
2022/03/24 00:53:27;;;;;;;114.40;65.43;;;;;;;4.64;92.76;103066.03;4967174;28;20057;-75
2022/03/24 00:55:55;;;;;;;118.47;68.22;;;;;;;4.62;92.55;103066.00;4973537;28;20033;-75
2022/03/24 00:58:21;;;;;;;113.50;68.35;;;;;;;4.60;93.12;103066.81;4967855;28;20030;-75
2022/03/24 01:00:47;;;;;;;116.47;65.95;;;;;;;4.60;93.23;103058.94;4986453;28;20034;-76
2022/03/24 01:03:13;;;;;;;116.95;67.28;;;;;;;4.59;92.97;103062.44;4988229;28;20477;-76
2022/03/24 01:05:39;;;;;;;114.30;67.47;;;;;;;4.58;93.10;103058.06;4969085;28;20030;-76
2022/03/24 01:08:08;;;;;;;111.55;66.38;;;;;;;4.56;93.02;103063.28;4983621;28;20058;-74
2022/03/24 01:10:35;;;;;;;114.05;67.20;;;;;;;4.57;93.22;103059.78;5001468;28;20424;-76
2022/03/24 01:13:01;;;;;;;117.55;69.85;;;;;;;4.56;93.29;103057.13;4985016;28;20508;-74
2022/03/24 01:15:30;;;;;;;113.80;68.22;;;;;;;4.57;93.26;103056.28;4986887;28;20049;-75
2022/03/24 01:17:59;;;;;;;113.25;66.43;;;;;;;4.55;93.15;103053.63;4987061;28;20028;-75
2022/03/24 01:20:24;;;;;;;116.40;68.90;;;;;;;4.57;93.81;103056.28;4985270;28;20049;-75
2022/03/24 01:22:50;;;;;;;114.78;65.95;;;;;;;4.60;93.02;103061.56;4986463;28;20609;-75
2022/03/24 01:25:16;;;;;;;116.55;67.45;;;;;;;4.58;93.39;103058.06;4985935;28;20042;-74
2022/03/24 01:27:42;;;;;;;112.28;65.50;;;;;;;4.56;92.77;103047.53;4973131;28;20232;-75
2022/03/24 01:30:09;;;;;;;114.05;66.22;;;;;;;4.54;92.75;103048.34;4983185;28;20033;-74
2022/03/24 01:32:35;;;;;;;117.60;67.70;;;;;;;4.52;92.58;103044.84;4984859;28;20052;-75
2022/03/24 01:35:03;;;;;;;113.95;64.45;;;;;;;4.49;92.54;103043.03;5001178;28;20049;-75
2022/03/24 01:37:29;;;;;;;114.03;66.32;;;;;;;4.47;92.81;103048.25;4987280;28;20052;-76
2022/03/24 01:39:55;;;;;;;121.65;68.53;;;;;;;4.46;93.22;103038.63;4988277;28;20029;-76
2022/03/24 01:42:21;;;;;;;119.35;67.55;;;;;;;4.45;93.29;103035.97;5004081;28;20492;-76
2022/03/24 01:44:47;;;;;;;118.88;68.70;;;;;;;4.44;93.37;103032.50;4987112;28;20088;-76
2022/03/24 01:47:13;;;;;;;117.88;70.32;;;;;;;4.45;93.58;103025.47;4990096;28;20734;-76
2022/03/24 01:49:40;;;;;;;120.63;69.82;;;;;;;4.46;93.69;103028.13;4987749;28;20679;-75
2022/03/24 01:52:12;;;;;;;122.38;69.45;;;;;;;4.48;93.56;103031.66;4989092;28;20030;-76
2022/03/24 01:54:41;;;;;;;125.40;72.72;;;;;;;4.50;94.00;103029.06;4988339;28;20034;-76
2022/03/24 01:57:09;;;;;;;119.65;69.40;;;;;;;4.51;94.15;103033.44;4987868;28;20033;-76
2022/03/24 01:59:37;;;;;;;123.75;70.55;;;;;;;4.51;94.07;103033.44;4988495;28;20045;-76
2022/03/24 02:02:04;;;;;;;126.05;71.03;;;;;;;4.49;94.16;103035.19;4987512;28;20069;-76
2022/03/24 02:04:35;;;;;;;119.63;69.80;;;;;;;4.48;94.04;103036.03;4989644;28;20844;-76
2022/03/24 02:07:01;;;;;;;122.28;69.75;;;;;;;4.49;93.77;103036.03;4987893;28;20054;-75
2022/03/24 02:09:27;;;;;;;126.88;71.82;;;;;;;4.48;94.25;103038.66;4986320;28;20636;-75
2022/03/24 02:11:53;;;;;;;126.85;73.65;;;;;;;4.45;94.18;103042.13;4992408;28;20382;-75
2022/03/24 02:14:18;;;;;;;131.68;73.93;;;;;;;4.43;94.40;103030.72;4993008;28;20109;-75
2022/03/24 02:16:47;;;;;;;132.85;73.07;;;;;;;4.40;94.18;103033.28;4987014;28;20038;-75
2022/03/24 02:19:24;;;;;;;124.07;72.03;;;;;;;4.36;94.85;103023.59;4973555;28;20109;-75
2022/03/24 02:21:51;;;;;;;127.32;72.13;;;;;;;4.33;94.15;103023.56;4975864;28;20038;-75
2022/03/24 02:24:19;;;;;;;127.75;70.72;;;;;;;4.29;94.81;103022.63;4959409;28;20030;-75
2022/03/24 02:26:45;;;;;;;130.35;73.22;;;;;;;4.27;94.54;103015.59;4985937;28;20038;-75
2022/03/24 02:29:12;;;;;;;140.60;76.90;;;;;;;4.27;94.58;103021.75;4988753;28;20033;-75
2022/03/24 02:31:40;;;;;;;128.00;73.13;;;;;;;4.26;94.94;103021.69;4988736;28;20036;-75
2022/03/24 02:36:52;;;;;;;131.82;73.55;;;;;;;4.21;95.08;103009.38;5000831;28;20046;-75
2022/03/24 02:39:17;;;;;;;132.05;73.13;;;;;;;4.19;95.11;103016.34;4986458;28;21413;-75
2022/03/24 02:41:49;;;;;;;141.63;76.85;;;;;;;4.17;94.85;103014.56;5002757;28;20037;-74
2022/03/24 02:44:14;;;;;;;139.05;78.18;;;;;;;4.14;95.70;103010.16;4988348;28;20045;-74
2022/03/24 02:46:42;;;;;;;132.40;73.03;;;;;;;4.12;95.71;103014.50;4986771;28;20038;-75
2022/03/24 02:49:09;;;;;;;138.20;77.13;;;;;;;4.09;95.51;103009.22;4987873;28;20807;-75
2022/03/24 02:51:34;;;;;;;144.75;80.68;;;;;;;4.06;95.36;103003.91;4987495;28;20038;-75
2022/03/24 02:54:00;;;;;;;143.35;76.82;;;;;;;4.04;95.72;103010.88;4986686;28;20037;-76
2022/03/24 02:56:25;;;;;;;147.45;79.82;;;;;;;4.04;96.06;103003.00;4988443;28;20018;-75
2022/03/24 02:58:51;;;;;;;150.85;81.05;;;;;;;4.01;96.17;103002.94;4987763;28;20277;-74
2022/03/24 03:01:18;;;;;;;149.73;80.68;;;;;;;3.99;95.76;103013.41;4988021;28;20066;-75
2022/03/24 03:03:44;;;;;;;159.00;81.25;;;;;;;3.97;95.78;103011.63;4989633;28;20034;-75
2022/03/24 03:06:11;;;;;;;155.65;80.20;;;;;;;3.94;96.40;102994.97;4988717;28;20034;-75
2022/03/24 03:08:36;;;;;;;153.15;81.95;;;;;;;3.90;96.04;103002.75;4992286;28;20413;-75
2022/03/24 03:11:02;;;;;;;163.52;86.30;;;;;;;3.88;96.22;102992.25;4989008;28;20038;-75
2022/03/24 03:13:27;;;;;;;165.80;87.75;;;;;;;3.87;96.63;103000.97;4989731;28;20030;-75
2022/03/24 03:15:53;;;;;;;153.50;81.20;;;;;;;3.86;96.97;102996.59;4989088;28;20018;-75
2022/03/24 03:18:18;;;;;;;175.52;89.53;;;;;;;3.84;96.54;102995.69;4988900;28;20029;-75
2022/03/24 03:20:45;;;;;;;163.88;85.03;;;;;;;3.83;96.94;102996.53;4988191;28;20160;-75
2022/03/24 03:23:11;;;;;;;168.68;87.57;;;;;;;3.83;97.31;102995.66;4987856;28;20046;-75
2022/03/24 03:25:36;;;;;;;169.50;87.55;;;;;;;3.80;97.70;102997.38;4987377;28;20518;-75
2022/03/24 03:28:04;;;;;;;175.35;88.10;;;;;;;3.82;97.78;103009.59;4987332;28;20026;-75
2022/03/24 03:30:30;;;;;;;165.25;84.18;;;;;;;3.78;97.91;103003.44;4987555;28;20048;-76
2022/03/24 03:32:55;;;;;;;174.77;89.50;;;;;;;3.77;98.09;102997.28;4983640;28;20033;-76
2022/03/24 03:35:22;;;;;;;177.50;88.97;;;;;;;3.76;97.86;102999.91;4986351;28;20045;-75
2022/03/24 03:37:47;;;;;;;164.50;84.55;;;;;;;3.74;97.83;102998.97;4970663;28;20045;-76
2022/03/24 03:40:13;;;;;;;158.63;82.20;;;;;;;3.71;98.01;102996.31;4988426;28;20038;-76
2022/03/24 03:42:39;;;;;;;184.95;90.05;;;;;;;3.69;98.20;103003.28;4969274;28;20088;-76
2022/03/24 03:45:05;;;;;;;179.45;88.25;;;;;;;3.66;98.50;102993.63;4986160;28;20038;-76
2022/03/24 03:47:31;;;;;;;166.73;83.80;;;;;;;3.64;98.23;102997.94;4987828;28;20457;-76
2022/03/24 03:49:56;;;;;;;165.48;85.18;;;;;;;3.62;98.25;102999.66;4967799;28;20033;-76
2022/03/24 03:52:22;;;;;;;159.15;83.97;;;;;;;3.59;98.33;103000.47;4986427;28;20042;-76
2022/03/24 03:54:47;;;;;;;173.18;87.85;;;;;;;3.57;98.67;102999.56;5001897;28;20041;-76
2022/03/24 03:57:13;;;;;;;189.70;92.88;;;;;;;3.56;98.44;103002.16;4969929;28;20044;-75
2022/03/24 03:59:39;;;;;;;178.32;87.65;;;;;;;3.54;98.57;103002.13;4986654;28;20030;-76
2022/03/24 04:02:05;;;;;;;197.43;94.63;;;;;;;3.53;98.73;102995.13;4986922;28;20045;-76
2022/03/24 04:04:31;;;;;;;179.43;90.93;;;;;;;3.52;98.94;102994.25;4986027;28;20081;-76
2022/03/24 04:06:56;;;;;;;170.85;87.68;;;;;;;3.51;98.99;102991.59;4991180;28;20022;-76
2022/03/24 04:09:22;;;;;;;185.63;92.15;;;;;;;3.49;99.31;102991.56;4967987;28;20056;-76
2022/03/24 04:11:48;;;;;;;183.45;89.72;;;;;;;3.47;99.49;102992.38;5002154;28;20042;-74
2022/03/24 04:14:14;;;;;;;195.55;96.00;;;;;;;3.45;99.55;102999.34;4987174;28;20753;-75
2022/03/24 04:16:39;;;;;;;217.73;97.18;;;;;;;3.44;99.66;103003.72;5002955;28;20148;-75
2022/03/24 04:19:07;;;;;;;194.30;94.18;;;;;;;3.43;99.82;102999.28;4987133;28;20037;-75
2022/03/24 04:21:33;;;;;;;185.10;91.05;;;;;;;3.40;99.66;103001.88;4973516;28;20042;-75
2022/03/24 04:23:59;;;;;;;177.30;87.25;;;;;;;3.38;99.67;103000.97;4969354;28;20637;-75
2022/03/24 04:26:24;;;;;;;176.48;89.47;;;;;;;3.36;99.66;103006.16;4987886;28;20705;-75
2022/03/24 04:28:51;;;;;;;183.88;89.47;;;;;;;3.34;99.89;102996.50;4988416;28;20026;-75
2022/03/24 04:31:16;;;;;;;200.82;93.40;;;;;;;3.33;100.00;102993.00;4986163;28;20527;-76
2022/03/24 04:33:42;;;;;;;215.70;100.40;;;;;;;3.33;100.00;103000.84;4984198;28;20026;-75
2022/03/24 04:36:08;;;;;;;212.25;99.95;;;;;;;3.32;100.00;102999.09;4987955;28;20026;-75
2022/03/24 04:38:35;;;;;;;217.43;101.53;;;;;;;3.33;100.00;103000.00;4984926;28;20138;-75
2022/03/24 04:41:01;;;;;;;225.35;103.43;;;;;;;3.32;100.00;102999.09;4987407;28;20087;-75
2022/03/24 04:43:27;;;;;;;262.17;110.75;;;;;;;3.32;100.00;103001.72;4987194;28;20044;-75
2022/03/24 04:45:52;;;;;;;227.38;103.82;;;;;;;3.34;100.00;103001.75;4986195;28;20029;-75
2022/03/24 04:48:18;;;;;;;240.57;108.32;;;;;;;3.34;100.00;103007.00;4985699;28;20036;-75
2022/03/24 04:50:44;;;;;;;209.02;98.53;;;;;;;3.33;100.00;103010.47;4984765;28;20046;-75
2022/03/24 04:53:14;;;;;;;214.25;98.43;;;;;;;3.30;100.00;103006.03;4984554;28;20061;-75
2022/03/24 04:55:41;;;;;;;223.05;102.45;;;;;;;3.28;100.00;103006.88;4986995;28;20346;-74
2022/03/24 04:58:07;;;;;;;222.27;102.38;;;;;;;3.29;100.00;103006.00;4985309;28;20037;-75
2022/03/24 05:00:33;;;;;;;251.57;106.95;;;;;;;3.28;100.00;103007.75;4986692;28;20041;-75
2022/03/24 05:02:59;;;;;;;215.10;100.47;;;;;;;3.26;100.00;103009.44;5001864;28;20131;-75
2022/03/24 05:05:24;;;;;;;201.73;96.30;;;;;;;3.24;100.00;103001.59;4968805;28;20053;-74
2022/03/24 05:07:50;;;;;;;201.85;95.95;;;;;;;3.21;100.00;103006.75;4975026;28;20110;-75
2022/03/24 05:10:16;;;;;;;242.30;104.78;;;;;;;3.19;100.00;103002.31;5005897;28;20554;-75
2022/03/24 05:12:42;;;;;;;192.95;93.20;;;;;;;3.17;100.00;103004.94;4987761;28;20080;-75
2022/03/24 05:15:09;;;;;;;197.65;94.57;;;;;;;3.15;100.00;103001.38;4989899;28;20061;-75
2022/03/24 05:17:35;;;;;;;191.57;91.50;;;;;;;3.15;100.00;103005.75;5012051;28;20369;-75
2022/03/24 05:20:01;;;;;;;185.95;89.90;;;;;;;3.14;100.00;103004.84;4994805;28;20091;-75
2022/03/24 05:22:26;;;;;;;210.45;97.43;;;;;;;3.15;100.00;103000.50;5011987;28;20109;-75
2022/03/24 05:24:52;;;;;;;192.77;91.80;;;;;;;3.12;100.00;103011.81;5011886;28;20030;-75
2022/03/24 05:27:18;;;;;;;211.27;95.40;;;;;;;3.10;100.00;102997.78;5011133;28;20048;-74
2022/03/24 05:29:43;;;;;;;229.80;103.03;;;;;;;3.12;100.00;103001.31;4993611;28;21389;-74
2022/03/24 05:32:09;;;;;;;215.30;98.72;;;;;;;3.12;100.00;102996.09;5010878;28;20029;-76
2022/03/24 05:34:34;;;;;;;195.80;92.75;;;;;;;3.12;100.00;102999.56;5010952;28;20048;-75
2022/03/24 05:37:00;;;;;;;215.20;97.80;;;;;;;3.14;100.00;102998.75;5009915;28;20033;-75
2022/03/24 05:39:26;;;;;;;263.50;106.88;;;;;;;3.11;100.00;102995.19;5011103;28;20045;-75
2022/03/24 05:41:51;;;;;;;218.15;96.32;;;;;;;3.15;100.00;103013.59;5008507;28;20693;-75
2022/03/24 05:44:17;;;;;;;220.23;99.32;;;;;;;3.15;100.00;103005.75;5009928;28;20064;-75
2022/03/24 05:46:44;;;;;;;245.23;102.70;;;;;;;3.17;100.00;103009.28;5011340;28;20111;-75
2022/03/24 05:49:14;;;;;;;241.98;102.20;;;;;;;3.19;100.00;103007.56;5012307;28;20099;-74
2022/03/24 05:51:42;;;;;;;208.68;94.93;;;;;;;3.18;100.00;103004.06;5010468;28;20401;-74
2022/03/24 05:54:09;;;;;;;223.68;98.65;;;;;;;3.19;100.00;103003.22;4990905;28;20034;-75
2022/03/24 05:56:35;;;;;;;214.82;98.47;;;;;;;3.20;100.00;103004.97;5010124;28;20568;-75
2022/03/24 05:59:00;;;;;;;247.82;104.75;;;;;;;3.21;100.00;103005.88;5008913;28;20029;-74
2022/03/24 06:01:26;;;;;;;253.98;107.75;;;;;;;3.23;100.00;103010.25;5010448;28;20087;-75
2022/03/24 06:03:52;;;;;;;227.55;102.93;;;;;;;3.25;100.00;103007.69;5010250;28;20056;-74
2022/03/24 06:06:18;;;;;;;233.73;105.38;;;;;;;3.28;100.00;103013.00;4990297;28;20022;-75
2022/03/24 06:08:44;;;;;;;231.25;101.38;;;;;;;3.29;100.00;103012.13;5010037;28;20049;-75
2022/03/24 06:11:12;;;;;;;231.75;102.18;;;;;;;3.31;100.00;103018.28;5008432;28;20393;-75
2022/03/24 06:13:40;;;;;;;257.02;109.22;;;;;;;3.33;100.00;103010.47;4973152;28;20624;-76
2022/03/24 06:16:06;;;;;;;270.85;110.97;;;;;;;3.41;100.00;103008.88;5008950;28;20037;-75
2022/03/24 06:18:32;;;;;;;256.25;105.35;;;;;;;3.52;100.00;103016.94;5007331;28;20037;-74
2022/03/24 06:20:59;;;;;;;264.10;107.65;;;;;;;3.57;100.00;103009.16;4976225;28;20042;-74
2022/03/24 06:23:25;;;;;;;262.52;107.95;;;;;;;3.61;100.00;103011.88;5011369;28;20045;-74
2022/03/24 06:25:51;;;;;;;223.90;100.72;;;;;;;3.70;100.00;103012.91;4989530;28;20052;-75
2022/03/24 06:28:16;;;;;;;229.40;102.10;;;;;;;3.75;100.00;103014.75;5010504;28;20029;-75
2022/03/24 06:30:42;;;;;;;242.02;106.18;;;;;;;3.81;100.00;103016.56;4992274;28;20029;-75
2022/03/24 06:33:08;;;;;;;224.52;100.35;;;;;;;3.84;100.00;103014.03;5008427;28;20033;-74
2022/03/24 06:35:34;;;;;;;209.35;97.05;;;;;;;3.90;100.00;103022.00;5009405;28;20044;-76
2022/03/24 06:37:59;;;;;;;232.07;102.38;;;;;;;3.96;100.00;103009.88;4992263;28;20392;-74
2022/03/24 06:40:25;;;;;;;221.77;99.15;;;;;;;4.03;100.00;103011.72;5011255;28;20780;-74
2022/03/24 06:42:52;;;;;;;202.65;95.90;;;;;;;4.08;100.00;103018.81;5009751;28;20034;-75
2022/03/24 06:45:18;;;;;;;221.93;102.15;;;;;;;4.14;100.00;103018.00;5010105;28;20053;-75
2022/03/24 06:47:44;;;;;;;224.68;101.03;;;;;;;4.22;100.00;103018.16;5008649;28;20124;-74
2022/03/24 06:50:12;;;;;;;226.50;101.88;;;;;;;4.31;100.00;103025.28;5011127;28;20064;-74
2022/03/24 06:52:39;;;;;;;229.10;103.93;;;;;;;4.39;100.00;103022.75;5006764;28;20513;-74
2022/03/24 06:55:06;;;;;;;218.50;100.85;;;;;;;4.48;100.00;103033.41;4990691;28;20628;-75
2022/03/24 06:57:31;;;;;;;227.65;104.40;;;;;;;4.55;100.00;103029.13;5008744;28;20033;-75
2022/03/24 06:59:57;;;;;;;201.75;96.75;;;;;;;4.61;100.00;103034.47;4991064;28;20117;-75
2022/03/24 07:02:23;;;;;;;207.60;101.20;;;;;;;4.65;100.00;103031.03;4976787;28;20543;-75
2022/03/24 07:04:49;;;;;;;196.27;94.45;;;;;;;4.72;100.00;103026.75;4990256;28;20638;-75
2022/03/24 07:07:14;;;;;;;193.70;91.30;;;;;;;4.77;100.00;103030.34;5008290;28;20149;-74
2022/03/24 07:09:40;;;;;;;187.07;88.22;;;;;;;4.85;100.00;103031.31;4971295;28;20054;-74
2022/03/24 07:12:06;;;;;;;172.45;87.13;;;;;;;4.91;100.00;103030.53;4988352;28;20034;-74
2022/03/24 07:14:31;;;;;;;179.65;89.72;;;;;;;4.97;100.00;103033.22;4986966;28;20034;-75
2022/03/24 07:16:58;;;;;;;173.48;86.72;;;;;;;5.05;100.00;103032.47;5003845;28;20068;-76
2022/03/24 07:19:23;;;;;;;175.38;88.03;;;;;;;5.09;100.00;103032.50;4985312;28;20486;-75
2022/03/24 07:21:49;;;;;;;179.73;89.20;;;;;;;5.18;100.00;103033.47;4987260;28;20058;-75
2022/03/24 07:24:15;;;;;;;174.73;90.78;;;;;;;5.24;100.00;103037.06;4986814;28;20022;-76
2022/03/24 07:26:40;;;;;;;169.10;85.28;;;;;;;5.33;100.00;103046.78;4988984;28;20109;-76
2022/03/24 07:29:06;;;;;;;162.90;83.10;;;;;;;5.41;100.00;103045.13;4988448;28;20038;-76
2022/03/24 07:31:32;;;;;;;160.57;83.72;;;;;;;5.53;100.00;103040.88;4988545;28;20069;-75
2022/03/24 07:33:58;;;;;;;165.90;84.88;;;;;;;5.63;100.00;103047.13;4986731;28;21538;-76
2022/03/24 07:36:25;;;;;;;160.77;81.93;;;;;;;5.72;100.00;103044.59;4972569;28;20447;-75
2022/03/24 07:38:55;;;;;;;159.85;83.35;;;;;;;5.82;100.00;103045.56;4958911;28;20346;-76
2022/03/24 07:41:21;;;;;;;163.30;82.85;;;;;;;5.91;100.00;103050.03;4989039;28;20405;-76
2022/03/24 07:43:47;;;;;;;152.63;81.43;;;;;;;6.02;100.00;103052.75;4989094;28;20389;-76
2022/03/24 07:46:13;;;;;;;162.63;84.20;;;;;;;6.15;100.00;103059.06;4988515;28;20053;-75
2022/03/24 07:48:39;;;;;;;153.32;81.70;;;;;;;6.24;100.00;103052.13;4986138;28;20034;-76
2022/03/24 07:51:05;;;;;;;154.90;83.15;;;;;;;6.34;100.00;103055.72;4986511;28;20034;-75
2022/03/24 07:53:39;;;;;;;153.85;82.45;;;;;;;6.47;100.00;103058.41;4989597;28;20102;-75
2022/03/24 07:56:05;;;;;;;155.35;85.03;;;;;;;6.56;100.00;103055.88;4988782;28;20544;-76
2022/03/24 07:58:31;;;;;;;157.10;84.05;;;;;;;6.64;100.00;103063.78;4987897;28;20045;-76
2022/03/24 08:00:57;;;;;;;151.45;82.70;;;;;;;6.72;100.00;103058.59;4987889;28;20046;-75
2022/03/24 08:03:23;;;;;;;149.60;82.75;;;;;;;6.83;100.00;103067.44;4988504;28;20022;-76
2022/03/24 08:05:49;;;;;;;155.55;82.43;;;;;;;6.93;100.00;103063.13;5002062;28;20087;-75
2022/03/24 08:08:16;;;;;;;148.68;80.70;;;;;;;7.02;100.00;103067.53;4985464;28;20508;-75
2022/03/24 08:10:44;;;;;;;145.25;80.97;;;;;;;7.08;100.00;103070.19;4985638;28;20053;-76
2022/03/24 08:13:11;;;;;;;139.30;77.65;;;;;;;7.18;100.00;103066.75;5003144;28;20041;-76
2022/03/24 08:15:37;;;;;;;142.70;78.47;;;;;;;7.27;100.00;103063.28;4983355;28;20477;-75
2022/03/24 08:18:07;;;;;;;133.13;77.40;;;;;;;7.35;100.00;103073.81;4984776;28;20045;-76
2022/03/24 08:20:33;;;;;;;133.52;74.82;;;;;;;7.45;100.00;103075.63;4985821;28;20033;-76
2022/03/24 08:22:59;;;;;;;128.43;73.28;;;;;;;7.55;100.00;103071.28;4987559;28;20474;-76
2022/03/24 08:25:26;;;;;;;123.07;71.72;;;;;;;7.64;100.00;103067.78;4987855;28;20041;-76
2022/03/24 08:27:51;;;;;;;121.80;70.75;;;;;;;7.72;100.00;103068.69;4983654;28;20349;-76
2022/03/24 08:30:17;;;;;;;124.20;73.28;;;;;;;7.81;100.00;103067.81;4987345;28;20032;-75
2022/03/24 08:32:43;;;;;;;114.22;67.50;;;;;;;7.89;100.00;103070.47;4969296;28;20103;-75
2022/03/24 08:35:09;;;;;;;118.50;66.97;;;;;;;7.98;100.00;103064.31;4986199;28;20030;-75
2022/03/24 08:37:35;;;;;;;107.97;65.15;;;;;;;8.06;100.00;103070.47;4969693;28;20049;-76
2022/03/24 08:40:01;;;;;;;117.60;70.30;;;;;;;8.13;100.00;103066.09;4986443;28;20038;-76
2022/03/24 08:42:27;;;;;;;116.63;69.30;;;;;;;8.20;100.00;103072.25;4985921;28;20050;-75
2022/03/24 08:44:52;;;;;;;114.05;66.50;;;;;;;8.28;100.00;103070.47;4984745;28;20121;-75
2022/03/24 08:47:18;;;;;;;108.82;65.75;;;;;;;8.33;100.00;103076.63;4990132;28;20033;-75
2022/03/24 08:49:43;;;;;;;107.43;64.95;;;;;;;8.40;100.00;103070.47;4984854;28;20038;-75
2022/03/24 08:52:09;;;;;;;105.57;63.03;;;;;;;8.48;100.00;103064.31;5002237;28;20057;-75
2022/03/24 08:54:35;;;;;;;108.97;65.45;;;;;;;8.55;100.00;103061.72;4970448;28;20417;-76
2022/03/24 08:57:01;;;;;;;101.60;63.28;;;;;;;8.62;100.00;103065.22;4985748;28;20030;-76
2022/03/24 08:59:27;;;;;;;103.00;63.90;;;;;;;8.69;100.00;103064.34;5000763;28;20025;-76
2022/03/24 09:01:52;;;;;;;97.30;62.22;;;;;;;8.78;100.00;103067.84;5001290;28;20551;-76
2022/03/24 09:04:20;;;;;;;101.40;63.33;;;;;;;8.85;99.93;103074.84;4986407;28;21400;-76
2022/03/24 09:06:48;;;;;;;99.38;62.63;;;;;;;8.91;99.93;103077.50;4986052;28;20037;-75
2022/03/24 09:09:14;;;;;;;98.00;61.00;;;;;;;8.99;98.94;103077.44;4987057;28;20050;-76
2022/03/24 09:11:40;;;;;;;99.97;60.72;;;;;;;9.05;98.93;103077.44;4986182;28;20386;-76
2022/03/24 09:14:05;;;;;;;91.28;58.45;;;;;;;9.13;98.48;103077.41;4982908;28;20033;-75
2022/03/24 09:16:32;;;;;;;91.05;56.97;;;;;;;9.21;97.75;103082.69;5000467;28;20103;-76
2022/03/24 09:18:57;;;;;;;97.40;60.03;;;;;;;9.32;96.70;103085.28;4984731;28;20069;-76
2022/03/24 09:21:23;;;;;;;91.45;57.42;;;;;;;9.40;96.35;103082.56;4985667;28;20184;-76
2022/03/24 09:23:48;;;;;;;92.20;58.20;;;;;;;9.49;95.52;103077.25;4999993;28;20382;-76
2022/03/24 09:26:14;;;;;;;88.35;56.08;;;;;;;9.57;95.50;103075.44;4967237;28;20404;-76
2022/03/24 09:28:40;;;;;;;88.20;56.35;;;;;;;9.64;95.15;103078.91;4984468;28;20473;-77
2022/03/24 09:31:06;;;;;;;85.72;55.15;;;;;;;9.72;94.28;103076.25;4985432;28;20521;-76
2022/03/24 09:33:32;;;;;;;81.43;54.05;;;;;;;9.81;94.18;103077.97;4986464;28;20100;-76
2022/03/24 09:35:57;;;;;;;86.40;54.75;;;;;;;9.89;93.59;103077.03;4986490;28;20034;-76
2022/03/24 09:38:23;;;;;;;83.00;52.65;;;;;;;10.01;92.83;103085.75;4983597;28;20042;-76
2022/03/24 09:40:50;;;;;;;78.40;52.15;;;;;;;10.09;91.15;103080.41;4984284;28;20037;-76
2022/03/24 09:43:18;;;;;;;83.72;54.28;;;;;;;10.17;90.97;103086.50;4985075;28;20057;-76
2022/03/24 09:45:46;;;;;;;83.00;52.45;;;;;;;10.25;90.70;103084.69;4986263;28;20034;-76
2022/03/24 09:48:12;;;;;;;77.88;52.15;;;;;;;10.34;90.02;103089.03;4985152;28;20030;-76
2022/03/24 09:50:38;;;;;;;78.32;51.85;;;;;;;10.41;89.19;103082.78;4985123;28;20466;-76
2022/03/24 09:53:05;;;;;;;82.60;51.33;;;;;;;10.49;89.21;103087.16;4984922;28;20027;-76
2022/03/24 09:55:32;;;;;;;82.90;51.42;;;;;;;10.52;88.66;103077.41;4985287;28;20041;-76
2022/03/24 09:57:59;;;;;;;78.25;51.15;;;;;;;10.61;87.56;103076.44;4984827;28;20026;-76
2022/03/24 10:00:25;;;;;;;74.85;48.88;;;;;;;10.68;87.32;103080.78;4985270;28;20065;-76
2022/03/24 10:03:09;;;;;;;72.32;47.80;;;;;;;10.77;85.53;103086.88;4985757;28;20712;-77
2022/03/24 10:05:35;;;;;;;71.90;46.95;;;;;;;10.88;85.80;103087.66;4985903;28;20046;-76
2022/03/24 10:08:08;;;;;;;71.97;47.03;;;;;;;10.95;84.60;103085.84;4989938;28;20049;-76
2022/03/24 10:10:36;;;;;;;73.80;47.28;;;;;;;11.03;84.07;103093.69;4992674;28;20049;-77
2022/03/24 10:13:04;;;;;;;76.32;46.83;;;;;;;11.08;83.67;103081.25;5005012;28;20498;-76
2022/03/24 10:15:30;;;;;;;72.35;45.47;;;;;;;11.18;82.67;103082.91;5007072;28;20057;-76
2022/03/24 10:17:57;;;;;;;68.57;46.33;;;;;;;11.25;81.78;103084.59;4972689;28;20496;-76
2022/03/24 10:20:29;;;;;;;72.95;47.08;;;;;;;11.34;81.33;103077.41;5005369;28;20030;-76
2022/03/24 10:22:56;;;;;;;71.25;47.00;;;;;;;11.41;80.83;103079.09;5007511;28;20564;-76
2022/03/24 10:25:33;;;;;;;70.93;47.33;;;;;;;11.45;80.78;103080.81;5007016;28;20128;-76
2022/03/24 10:28:02;;;;;;;71.20;47.85;;;;;;;11.50;80.57;103068.34;5005432;28;20779;-76
2022/03/24 10:30:27;;;;;;;70.05;46.45;;;;;;;11.59;80.85;103072.63;5006590;28;20174;-76
2022/03/24 10:32:57;;;;;;;66.00;45.22;;;;;;;11.66;79.95;103070.78;5005924;28;20527;-76
2022/03/24 10:35:23;;;;;;;65.80;42.22;;;;;;;11.70;79.23;103075.13;4988148;28;20037;-76
2022/03/24 10:37:50;;;;;;;65.10;42.33;;;;;;;11.68;79.12;103066.34;5006753;28;20484;-75
2022/03/24 10:40:16;;;;;;;63.38;41.10;;;;;;;11.76;78.58;103072.41;4993720;28;20037;-76
2022/03/24 10:42:41;;;;;;;47.20;30.95;;;;;;;11.84;77.27;103066.97;4975456;28;20049;-75
2022/03/24 10:45:21;;;;;;;53.78;33.20;;;;;;;11.89;73.80;103074.88;5006030;28;20033;-75
2022/03/24 10:48:00;;;;;;;48.63;31.80;;;;;;;11.96;72.66;103063.25;5006493;28;20313;-76
2022/03/24 10:50:42;;;;;;;46.55;29.55;;;;;;;12.06;68.11;103066.66;5006557;28;20029;-76
2022/03/24 10:53:09;;;;;;;57.58;36.55;;;;;;;12.14;70.91;103061.25;5006278;28;20034;-76
2022/03/24 10:55:44;;;;;;;53.60;35.80;;;;;;;12.20;71.20;103067.31;5006054;28;20056;-75
2022/03/24 10:58:28;;;;;;;52.40;33.72;;;;;;;12.33;68.49;103064.44;5004836;28;20025;-76
2022/03/24 11:00:57;;;;;;;47.13;32.63;;;;;;;12.38;70.34;103067.03;4986657;28;20049;-76
2022/03/24 11:03:23;;;;;;;58.00;36.38;;;;;;;12.47;69.94;103066.84;5004735;28;20029;-75
2022/03/24 11:05:49;;;;;;;52.22;33.55;;;;;;;12.54;68.58;103062.31;5005439;28;20037;-75